sensor_id;sensor_type;location;lat;lon;timestamp;temperature;humidity
10175;DHT22;18221;38.704;0.152;2022-08-04T00:11:30;27.20;99.90
10175;DHT22;18221;38.704;0.152;2022-08-04T00:14:02;27.20;99.90
10175;DHT22;18221;38.704;0.152;2022-08-04T00:16:35;27.20;99.90
10175;DHT22;18221;38.704;0.152;2022-08-04T00:19:09;27.20;99.90
10175;DHT22;18221;38.704;0.152;2022-08-04T00:21:44;27.10;99.90
10175;DHT22;18221;38.704;0.152;2022-08-04T00:24:16;27.10;99.90
10175;DHT22;18221;38.704;0.152;2022-08-04T00:26:47;27.10;99.90
10175;DHT22;18221;38.704;0.152;2022-08-04T00:29:15;27.10;99.90
10175;DHT22;18221;38.704;0.152;2022-08-04T00:31:43;27.20;99.90
10175;DHT22;18221;38.704;0.152;2022-08-04T00:34:11;27.10;99.90
10175;DHT22;18221;38.704;0.152;2022-08-04T00:36:42;27.10;99.90
10175;DHT22;18221;38.704;0.152;2022-08-04T00:39:12;27.00;99.90
10175;DHT22;18221;38.704;0.152;2022-08-04T00:41:52;27.00;99.90
10175;DHT22;18221;38.704;0.152;2022-08-04T00:44:37;26.90;99.90
10175;DHT22;18221;38.704;0.152;2022-08-04T00:47:32;26.90;99.90
10175;DHT22;18221;38.704;0.152;2022-08-04T00:50:09;26.80;99.90
10175;DHT22;18221;38.704;0.152;2022-08-04T00:52:53;26.80;99.90
10175;DHT22;18221;38.704;0.152;2022-08-04T00:56:01;26.90;99.90
10175;DHT22;18221;38.704;0.152;2022-08-04T00:58:56;26.80;99.90
10175;DHT22;18221;38.704;0.152;2022-08-04T01:01:51;26.80;99.90
10175;DHT22;18221;38.704;0.152;2022-08-04T01:04:37;26.80;99.90
10175;DHT22;18221;38.704;0.152;2022-08-04T01:07:30;26.80;99.90
10175;DHT22;18221;38.704;0.152;2022-08-04T01:10:25;26.80;99.90
10175;DHT22;18221;38.704;0.152;2022-08-04T01:16:52;26.80;99.90
10175;DHT22;18221;38.704;0.152;2022-08-04T01:26:12;26.70;99.90
10175;DHT22;18221;38.704;0.152;2022-08-04T01:29:03;26.70;99.90
10175;DHT22;18221;38.704;0.152;2022-08-04T01:31:39;26.70;99.90
10175;DHT22;18221;38.704;0.152;2022-08-04T01:34:19;26.70;99.90
10175;DHT22;18221;38.704;0.152;2022-08-04T01:37:02;26.70;99.90
10175;DHT22;18221;38.704;0.152;2022-08-04T01:39:40;26.70;99.90
10175;DHT22;18221;38.704;0.152;2022-08-04T01:42:17;26.60;99.90
10175;DHT22;18221;38.704;0.152;2022-08-04T01:44:49;26.70;99.90
10175;DHT22;18221;38.704;0.152;2022-08-04T01:47:20;26.60;99.90
10175;DHT22;18221;38.704;0.152;2022-08-04T01:49:50;26.60;99.90
10175;DHT22;18221;38.704;0.152;2022-08-04T01:52:23;26.60;99.90
10175;DHT22;18221;38.704;0.152;2022-08-04T01:54:54;26.60;99.90
10175;DHT22;18221;38.704;0.152;2022-08-04T01:57:24;26.60;99.90
10175;DHT22;18221;38.704;0.152;2022-08-04T01:59:58;26.50;99.90
10175;DHT22;18221;38.704;0.152;2022-08-04T02:02:26;26.50;99.90
10175;DHT22;18221;38.704;0.152;2022-08-04T02:04:54;26.50;99.90
10175;DHT22;18221;38.704;0.152;2022-08-04T02:07:41;26.40;99.90
10175;DHT22;18221;38.704;0.152;2022-08-04T02:10:26;26.40;99.90
10175;DHT22;18221;38.704;0.152;2022-08-04T02:13:10;26.40;99.90
10175;DHT22;18221;38.704;0.152;2022-08-04T02:15:56;26.30;99.90
10175;DHT22;18221;38.704;0.152;2022-08-04T02:18:30;26.30;99.90
10175;DHT22;18221;38.704;0.152;2022-08-04T02:21:03;26.20;99.90
10175;DHT22;18221;38.704;0.152;2022-08-04T02:23:35;26.10;99.90
10175;DHT22;18221;38.704;0.152;2022-08-04T02:26:10;26.10;99.90
10175;DHT22;18221;38.704;0.152;2022-08-04T02:28:46;26.00;99.90
10175;DHT22;18221;38.704;0.152;2022-08-04T02:31:26;26.00;99.90
10175;DHT22;18221;38.704;0.152;2022-08-04T02:34:05;26.00;99.90
10175;DHT22;18221;38.704;0.152;2022-08-04T02:36:37;26.00;99.90
10175;DHT22;18221;38.704;0.152;2022-08-04T02:39:07;26.00;99.90
10175;DHT22;18221;38.704;0.152;2022-08-04T02:41:37;26.00;99.90
10175;DHT22;18221;38.704;0.152;2022-08-04T02:44:07;26.00;99.90
10175;DHT22;18221;38.704;0.152;2022-08-04T02:46:38;26.00;99.90
10175;DHT22;18221;38.704;0.152;2022-08-04T02:49:09;26.00;99.90
10175;DHT22;18221;38.704;0.152;2022-08-04T02:51:41;26.00;99.90
10175;DHT22;18221;38.704;0.152;2022-08-04T02:54:11;26.00;99.90
10175;DHT22;18221;38.704;0.152;2022-08-04T02:56:44;26.00;99.90
10175;DHT22;18221;38.704;0.152;2022-08-04T02:59:13;26.00;99.90
10175;DHT22;18221;38.704;0.152;2022-08-04T03:01:42;26.00;99.90
10175;DHT22;18221;38.704;0.152;2022-08-04T03:04:21;26.00;99.90
10175;DHT22;18221;38.704;0.152;2022-08-04T03:10:46;25.90;99.90
10175;DHT22;18221;38.704;0.152;2022-08-04T03:17:49;25.80;99.90
10175;DHT22;18221;38.704;0.152;2022-08-04T03:21:11;25.80;99.90
10175;DHT22;18221;38.704;0.152;2022-08-04T03:24:15;25.80;99.90
10175;DHT22;18221;38.704;0.152;2022-08-04T03:30:50;25.80;99.90
10175;DHT22;18221;38.704;0.152;2022-08-04T03:33:48;25.70;99.90
10175;DHT22;18221;38.704;0.152;2022-08-04T03:36:55;25.70;99.90
10175;DHT22;18221;38.704;0.152;2022-08-04T03:40:21;25.60;99.90
10175;DHT22;18221;38.704;0.152;2022-08-04T03:43:31;27.50;99.90
10175;DHT22;18221;38.704;0.152;2022-08-04T03:50:39;25.40;99.90
10175;DHT22;18221;38.704;0.152;2022-08-04T03:53:47;25.40;99.90
10175;DHT22;18221;38.704;0.152;2022-08-04T03:57:04;25.30;99.90
10175;DHT22;18221;38.704;0.152;2022-08-04T04:00:04;25.30;99.90
10175;DHT22;18221;38.704;0.152;2022-08-04T04:03:09;25.40;99.90
10175;DHT22;18221;38.704;0.152;2022-08-04T04:06:27;25.40;99.90
10175;DHT22;18221;38.704;0.152;2022-08-04T04:16:19;25.40;99.90
10175;DHT22;18221;38.704;0.152;2022-08-04T04:19:22;25.40;99.90
10175;DHT22;18221;38.704;0.152;2022-08-04T04:22:16;25.40;99.90
10175;DHT22;18221;38.704;0.152;2022-08-04T04:25:18;25.30;99.90
10175;DHT22;18221;38.704;0.152;2022-08-04T04:31:33;25.30;99.90
10175;DHT22;18221;38.704;0.152;2022-08-04T04:34:32;25.40;99.90
10175;DHT22;18221;38.704;0.152;2022-08-04T04:37:24;25.40;99.90
10175;DHT22;18221;38.704;0.152;2022-08-04T04:40:16;25.40;99.90
10175;DHT22;18221;38.704;0.152;2022-08-04T04:46:02;25.40;99.90
10175;DHT22;18221;38.704;0.152;2022-08-04T04:48:44;25.40;99.90
10175;DHT22;18221;38.704;0.152;2022-08-04T04:51:26;25.40;99.90
10175;DHT22;18221;38.704;0.152;2022-08-04T04:54:04;25.40;99.90
10175;DHT22;18221;38.704;0.152;2022-08-04T04:56:42;25.30;99.90
10175;DHT22;18221;38.704;0.152;2022-08-04T04:59:18;25.40;99.90
10175;DHT22;18221;38.704;0.152;2022-08-04T05:05:14;25.40;99.90
10175;DHT22;18221;38.704;0.152;2022-08-04T05:11:38;25.40;99.90
10175;DHT22;18221;38.704;0.152;2022-08-04T05:14:26;25.30;99.90
10175;DHT22;18221;38.704;0.152;2022-08-04T05:17:02;25.40;99.90
10175;DHT22;18221;38.704;0.152;2022-08-04T05:19:41;25.40;99.90
10175;DHT22;18221;38.704;0.152;2022-08-04T05:22:21;25.40;99.90
10175;DHT22;18221;38.704;0.152;2022-08-04T05:24:57;25.30;99.90
10175;DHT22;18221;38.704;0.152;2022-08-04T05:27:36;25.30;99.90
10175;DHT22;18221;38.704;0.152;2022-08-04T05:30:08;25.30;99.90
10175;DHT22;18221;38.704;0.152;2022-08-04T05:32:45;25.20;99.90
10175;DHT22;18221;38.704;0.152;2022-08-04T05:35:26;25.20;99.90
10175;DHT22;18221;38.704;0.152;2022-08-04T05:37:57;25.20;99.90
10175;DHT22;18221;38.704;0.152;2022-08-04T05:40:29;25.20;99.90
10175;DHT22;18221;38.704;0.152;2022-08-04T05:42:58;25.20;99.90
10175;DHT22;18221;38.704;0.152;2022-08-04T05:45:28;25.20;99.90
10175;DHT22;18221;38.704;0.152;2022-08-04T05:47:57;25.30;99.90
10175;DHT22;18221;38.704;0.152;2022-08-04T05:50:24;25.30;99.90
10175;DHT22;18221;38.704;0.152;2022-08-04T05:52:53;25.30;99.90
10175;DHT22;18221;38.704;0.152;2022-08-04T05:55:22;25.30;99.90
10175;DHT22;18221;38.704;0.152;2022-08-04T05:57:53;25.30;99.90
10175;DHT22;18221;38.704;0.152;2022-08-04T06:00:25;25.30;99.90
10175;DHT22;18221;38.704;0.152;2022-08-04T06:02:57;25.40;99.90
10175;DHT22;18221;38.704;0.152;2022-08-04T06:05:27;25.30;99.90
10175;DHT22;18221;38.704;0.152;2022-08-04T06:07:55;25.40;99.90
10175;DHT22;18221;38.704;0.152;2022-08-04T06:10:25;25.40;99.90
10175;DHT22;18221;38.704;0.152;2022-08-04T06:12:57;25.50;99.90
10175;DHT22;18221;38.704;0.152;2022-08-04T06:15:31;25.60;99.90
10175;DHT22;18221;38.704;0.152;2022-08-04T06:18:06;25.60;99.90
10175;DHT22;18221;38.704;0.152;2022-08-04T06:20:38;25.70;99.90
10175;DHT22;18221;38.704;0.152;2022-08-04T06:23:13;25.70;99.90
10175;DHT22;18221;38.704;0.152;2022-08-04T06:25:45;25.80;99.90
10175;DHT22;18221;38.704;0.152;2022-08-04T06:28:17;25.80;99.90
10175;DHT22;18221;38.704;0.152;2022-08-04T06:30:49;25.90;99.90
10175;DHT22;18221;38.704;0.152;2022-08-04T06:33:20;26.00;99.90
10175;DHT22;18221;38.704;0.152;2022-08-04T06:35:59;26.30;99.90
10175;DHT22;18221;38.704;0.152;2022-08-04T06:38:30;26.40;99.90
10175;DHT22;18221;38.704;0.152;2022-08-04T06:41:01;26.50;99.90
10175;DHT22;18221;38.704;0.152;2022-08-04T06:43:36;26.60;99.90
10175;DHT22;18221;38.704;0.152;2022-08-04T06:46:09;26.70;99.90
10175;DHT22;18221;38.704;0.152;2022-08-04T06:48:38;26.70;99.90
10175;DHT22;18221;38.704;0.152;2022-08-04T06:51:09;26.70;99.90
10175;DHT22;18221;38.704;0.152;2022-08-04T06:53:39;26.70;99.90
10175;DHT22;18221;38.704;0.152;2022-08-04T06:56:10;26.80;99.90
10175;DHT22;18221;38.704;0.152;2022-08-04T06:58:40;26.80;99.90
10175;DHT22;18221;38.704;0.152;2022-08-04T07:01:10;26.80;99.90
10175;DHT22;18221;38.704;0.152;2022-08-04T07:03:43;26.80;99.90
10175;DHT22;18221;38.704;0.152;2022-08-04T07:06:11;26.70;99.90
10175;DHT22;18221;38.704;0.152;2022-08-04T07:08:43;26.80;99.90
10175;DHT22;18221;38.704;0.152;2022-08-04T07:11:11;26.80;99.90
10175;DHT22;18221;38.704;0.152;2022-08-04T07:13:41;26.80;99.90
10175;DHT22;18221;38.704;0.152;2022-08-04T07:16:14;26.90;99.90
10175;DHT22;18221;38.704;0.152;2022-08-04T07:18:44;26.90;99.90
10175;DHT22;18221;38.704;0.152;2022-08-04T07:21:19;27.00;99.90
10175;DHT22;18221;38.704;0.152;2022-08-04T07:23:48;27.00;99.90
10175;DHT22;18221;38.704;0.152;2022-08-04T07:26:17;27.10;99.90
10175;DHT22;18221;38.704;0.152;2022-08-04T07:28:45;27.10;99.90
10175;DHT22;18221;38.704;0.152;2022-08-04T07:31:17;27.20;99.90
10175;DHT22;18221;38.704;0.152;2022-08-04T07:33:48;27.30;99.90
10175;DHT22;18221;38.704;0.152;2022-08-04T07:36:17;27.30;99.90
10175;DHT22;18221;38.704;0.152;2022-08-04T07:38:45;27.40;99.90
10175;DHT22;18221;38.704;0.152;2022-08-04T07:41:14;27.60;99.90
10175;DHT22;18221;38.704;0.152;2022-08-04T07:43:49;27.80;99.90
10175;DHT22;18221;38.704;0.152;2022-08-04T07:46:19;28.00;99.90
10175;DHT22;18221;38.704;0.152;2022-08-04T07:48:48;28.20;99.90
10175;DHT22;18221;38.704;0.152;2022-08-04T07:51:16;28.50;99.90
10175;DHT22;18221;38.704;0.152;2022-08-04T07:53:45;28.60;99.90
10175;DHT22;18221;38.704;0.152;2022-08-04T07:56:15;28.70;99.90
10175;DHT22;18221;38.704;0.152;2022-08-04T07:58:44;28.90;99.90
10175;DHT22;18221;38.704;0.152;2022-08-04T08:01:12;29.10;99.90
10175;DHT22;18221;38.704;0.152;2022-08-04T08:03:43;29.20;99.90
10175;DHT22;18221;38.704;0.152;2022-08-04T08:06:11;29.40;99.90
10175;DHT22;18221;38.704;0.152;2022-08-04T08:08:40;29.80;99.90
10175;DHT22;18221;38.704;0.152;2022-08-04T08:11:08;30.00;99.90
10175;DHT22;18221;38.704;0.152;2022-08-04T08:13:39;30.00;99.90
10175;DHT22;18221;38.704;0.152;2022-08-04T08:16:08;30.20;99.90
10175;DHT22;18221;38.704;0.152;2022-08-04T08:18:39;30.30;99.90
10175;DHT22;18221;38.704;0.152;2022-08-04T08:21:09;30.50;99.90
10175;DHT22;18221;38.704;0.152;2022-08-04T08:23:37;30.80;99.90
10175;DHT22;18221;38.704;0.152;2022-08-04T08:26:06;30.80;99.90
10175;DHT22;18221;38.704;0.152;2022-08-04T08:28:35;30.90;99.90
10175;DHT22;18221;38.704;0.152;2022-08-04T08:31:03;31.10;99.90
10175;DHT22;18221;38.704;0.152;2022-08-04T08:33:31;31.00;99.90
10175;DHT22;18221;38.704;0.152;2022-08-04T08:36:03;30.80;99.90
10175;DHT22;18221;38.704;0.152;2022-08-04T08:38:43;30.70;99.90
10175;DHT22;18221;38.704;0.152;2022-08-04T08:41:53;30.60;99.90
10175;DHT22;18221;38.704;0.152;2022-08-04T08:48:28;30.40;99.90
10175;DHT22;18221;38.704;0.152;2022-08-04T08:51:23;30.40;99.90
10175;DHT22;18221;38.704;0.152;2022-08-04T08:54:39;30.50;99.90
10175;DHT22;18221;38.704;0.152;2022-08-04T08:57:37;30.40;99.90
10175;DHT22;18221;38.704;0.152;2022-08-04T09:00:19;30.30;99.90
10175;DHT22;18221;38.704;0.152;2022-08-04T09:03:23;30.50;99.90
10175;DHT22;18221;38.704;0.152;2022-08-04T09:06:27;30.60;99.90
10175;DHT22;18221;38.704;0.152;2022-08-04T09:09:22;30.60;99.90
10175;DHT22;18221;38.704;0.152;2022-08-04T09:12:24;30.70;99.90
10175;DHT22;18221;38.704;0.152;2022-08-04T09:15:03;30.60;99.90
10175;DHT22;18221;38.704;0.152;2022-08-04T09:17:40;30.50;99.90
10175;DHT22;18221;38.704;0.152;2022-08-04T09:20:20;30.30;99.90
10175;DHT22;18221;38.704;0.152;2022-08-04T09:23:05;30.40;99.90
10175;DHT22;18221;38.704;0.152;2022-08-04T09:25:47;30.30;99.90
10175;DHT22;18221;38.704;0.152;2022-08-04T09:28:23;30.40;99.90
10175;DHT22;18221;38.704;0.152;2022-08-04T09:30:56;30.50;99.90
10175;DHT22;18221;38.704;0.152;2022-08-04T09:33:43;30.60;99.90
10175;DHT22;18221;38.704;0.152;2022-08-04T09:36:26;30.70;99.90
10175;DHT22;18221;38.704;0.152;2022-08-04T09:39:21;30.70;99.90
10175;DHT22;18221;38.704;0.152;2022-08-04T09:42:00;30.80;99.90
10175;DHT22;18221;38.704;0.152;2022-08-04T09:44:47;30.70;99.90
10175;DHT22;18221;38.704;0.152;2022-08-04T09:47:29;30.70;99.90
10175;DHT22;18221;38.704;0.152;2022-08-04T09:50:06;30.80;99.90
10175;DHT22;18221;38.704;0.152;2022-08-04T09:52:48;30.80;99.90
10175;DHT22;18221;38.704;0.152;2022-08-04T09:55:36;30.70;99.90
10175;DHT22;18221;38.704;0.152;2022-08-04T09:58:20;30.70;99.90
10175;DHT22;18221;38.704;0.152;2022-08-04T10:01:00;30.70;99.90
10175;DHT22;18221;38.704;0.152;2022-08-04T10:03:38;30.70;99.90
10175;DHT22;18221;38.704;0.152;2022-08-04T10:06:33;30.80;99.90
10175;DHT22;18221;38.704;0.152;2022-08-04T10:09:21;30.70;99.90
10175;DHT22;18221;38.704;0.152;2022-08-04T10:12:20;30.80;99.90
10175;DHT22;18221;38.704;0.152;2022-08-04T10:15:06;30.80;99.90
10175;DHT22;18221;38.704;0.152;2022-08-04T10:18:08;30.80;99.90
10175;DHT22;18221;38.704;0.152;2022-08-04T10:20:54;30.70;99.90
10175;DHT22;18221;38.704;0.152;2022-08-04T10:23:38;30.60;99.90
10175;DHT22;18221;38.704;0.152;2022-08-04T10:26:26;30.60;99.90
10175;DHT22;18221;38.704;0.152;2022-08-04T10:29:05;30.60;99.90
10175;DHT22;18221;38.704;0.152;2022-08-04T10:31:43;30.60;99.90
10175;DHT22;18221;38.704;0.152;2022-08-04T10:34:19;30.60;99.90
10175;DHT22;18221;38.704;0.152;2022-08-04T10:36:57;30.60;99.90
10175;DHT22;18221;38.704;0.152;2022-08-04T10:39:37;30.60;99.90
10175;DHT22;18221;38.704;0.152;2022-08-04T10:42:35;30.50;99.90
10175;DHT22;18221;38.704;0.152;2022-08-04T10:45:14;30.60;99.90
10175;DHT22;18221;38.704;0.152;2022-08-04T10:47:55;30.70;99.90
10175;DHT22;18221;38.704;0.152;2022-08-04T10:50:29;30.70;99.90
10175;DHT22;18221;38.704;0.152;2022-08-04T10:53:06;30.80;99.90
10175;DHT22;18221;38.704;0.152;2022-08-04T10:55:43;30.70;99.90
10175;DHT22;18221;38.704;0.152;2022-08-04T10:58:20;30.70;99.90
10175;DHT22;18221;38.704;0.152;2022-08-04T11:00:57;30.60;99.90
10175;DHT22;18221;38.704;0.152;2022-08-04T11:03:36;30.50;99.90
10175;DHT22;18221;38.704;0.152;2022-08-04T11:06:11;30.60;99.90
10175;DHT22;18221;38.704;0.152;2022-08-04T11:08:43;30.50;99.90
10175;DHT22;18221;38.704;0.152;2022-08-04T11:11:19;30.50;99.90
10175;DHT22;18221;38.704;0.152;2022-08-04T11:13:58;30.60;99.90
10175;DHT22;18221;38.704;0.152;2022-08-04T11:16:38;30.80;99.90
10175;DHT22;18221;38.704;0.152;2022-08-04T11:19:23;30.90;99.90
10175;DHT22;18221;38.704;0.152;2022-08-04T11:22:05;31.00;99.90
10175;DHT22;18221;38.704;0.152;2022-08-04T11:24:42;31.10;99.90
10175;DHT22;18221;38.704;0.152;2022-08-04T11:27:21;31.10;99.90
10175;DHT22;18221;38.704;0.152;2022-08-04T11:30:09;31.20;99.90
10175;DHT22;18221;38.704;0.152;2022-08-04T11:32:45;31.20;99.90
10175;DHT22;18221;38.704;0.152;2022-08-04T11:35:33;31.20;99.90
10175;DHT22;18221;38.704;0.152;2022-08-04T11:38:08;31.30;99.90
10175;DHT22;18221;38.704;0.152;2022-08-04T11:40:50;31.40;99.90
10175;DHT22;18221;38.704;0.152;2022-08-04T11:43:32;31.50;99.90
10175;DHT22;18221;38.704;0.152;2022-08-04T11:46:13;31.50;99.90
10175;DHT22;18221;38.704;0.152;2022-08-04T11:48:55;31.40;99.90
10175;DHT22;18221;38.704;0.152;2022-08-04T11:51:35;31.40;99.90
10175;DHT22;18221;38.704;0.152;2022-08-04T11:54:04;31.50;99.90
10175;DHT22;18221;38.704;0.152;2022-08-04T11:56:33;31.50;99.90
10175;DHT22;18221;38.704;0.152;2022-08-04T11:59:02;31.70;99.90
10175;DHT22;18221;38.704;0.152;2022-08-04T12:01:39;31.60;99.90
10175;DHT22;18221;38.704;0.152;2022-08-04T12:04:24;31.60;99.90
10175;DHT22;18221;38.704;0.152;2022-08-04T12:07:06;31.50;99.90
10175;DHT22;18221;38.704;0.152;2022-08-04T12:09:48;31.60;99.90
10175;DHT22;18221;38.704;0.152;2022-08-04T12:12:27;31.60;99.90
10175;DHT22;18221;38.704;0.152;2022-08-04T12:15:11;31.70;99.90
10175;DHT22;18221;38.704;0.152;2022-08-04T12:17:51;31.60;99.90
10175;DHT22;18221;38.704;0.152;2022-08-04T12:20:29;31.80;99.90
10175;DHT22;18221;38.704;0.152;2022-08-04T12:23:10;31.80;99.90
10175;DHT22;18221;38.704;0.152;2022-08-04T12:25:47;31.90;99.90
10175;DHT22;18221;38.704;0.152;2022-08-04T12:28:24;31.90;99.90
10175;DHT22;18221;38.704;0.152;2022-08-04T12:31:00;31.80;99.90
10175;DHT22;18221;38.704;0.152;2022-08-04T12:33:39;31.70;99.90
10175;DHT22;18221;38.704;0.152;2022-08-04T12:36:19;31.70;99.90
10175;DHT22;18221;38.704;0.152;2022-08-04T12:38:58;31.80;99.90
10175;DHT22;18221;38.704;0.152;2022-08-04T12:41:47;31.80;99.90
10175;DHT22;18221;38.704;0.152;2022-08-04T12:44:30;31.80;99.90
10175;DHT22;18221;38.704;0.152;2022-08-04T12:47:02;32.10;99.90
10175;DHT22;18221;38.704;0.152;2022-08-04T12:49:34;32.30;99.90
10175;DHT22;18221;38.704;0.152;2022-08-04T12:52:06;32.30;99.90
10175;DHT22;18221;38.704;0.152;2022-08-04T12:54:36;32.20;99.90
10175;DHT22;18221;38.704;0.152;2022-08-04T12:57:09;32.10;99.90
10175;DHT22;18221;38.704;0.152;2022-08-04T12:59:40;31.80;99.90
10175;DHT22;18221;38.704;0.152;2022-08-04T13:02:15;31.70;99.90
10175;DHT22;18221;38.704;0.152;2022-08-04T13:04:50;31.70;99.90
10175;DHT22;18221;38.704;0.152;2022-08-04T13:07:23;31.70;99.90
10175;DHT22;18221;38.704;0.152;2022-08-04T13:09:52;31.70;99.90
10175;DHT22;18221;38.704;0.152;2022-08-04T13:12:23;31.60;99.90
10175;DHT22;18221;38.704;0.152;2022-08-04T13:15:05;31.50;99.90
10175;DHT22;18221;38.704;0.152;2022-08-04T13:17:48;31.60;99.90
10175;DHT22;18221;38.704;0.152;2022-08-04T13:20:25;31.50;99.90
10175;DHT22;18221;38.704;0.152;2022-08-04T13:23:03;31.60;99.90
10175;DHT22;18221;38.704;0.152;2022-08-04T13:25:33;31.40;99.90
10175;DHT22;18221;38.704;0.152;2022-08-04T13:28:07;31.30;99.90
10175;DHT22;18221;38.704;0.152;2022-08-04T13:30:43;31.60;99.90
10175;DHT22;18221;38.704;0.152;2022-08-04T13:33:15;31.50;99.90
10175;DHT22;18221;38.704;0.152;2022-08-04T13:35:46;31.50;99.90
10175;DHT22;18221;38.704;0.152;2022-08-04T13:38:17;31.60;99.90
10175;DHT22;18221;38.704;0.152;2022-08-04T13:40:47;31.70;99.90
10175;DHT22;18221;38.704;0.152;2022-08-04T13:43:23;31.70;99.90
10175;DHT22;18221;38.704;0.152;2022-08-04T13:45:58;31.70;99.90
10175;DHT22;18221;38.704;0.152;2022-08-04T13:48:33;31.70;99.90
10175;DHT22;18221;38.704;0.152;2022-08-04T13:51:05;31.90;99.90
10175;DHT22;18221;38.704;0.152;2022-08-04T13:53:36;31.90;99.90
10175;DHT22;18221;38.704;0.152;2022-08-04T13:56:08;32.00;99.90
10175;DHT22;18221;38.704;0.152;2022-08-04T13:58:43;32.10;99.90
10175;DHT22;18221;38.704;0.152;2022-08-04T14:01:15;32.10;99.90
10175;DHT22;18221;38.704;0.152;2022-08-04T14:03:55;32.20;99.90
10175;DHT22;18221;38.704;0.152;2022-08-04T14:06:30;32.20;99.90
10175;DHT22;18221;38.704;0.152;2022-08-04T14:09:13;32.20;99.90
10175;DHT22;18221;38.704;0.152;2022-08-04T14:11:44;32.30;99.90
10175;DHT22;18221;38.704;0.152;2022-08-04T14:14:19;32.30;99.90
10175;DHT22;18221;38.704;0.152;2022-08-04T14:16:57;32.60;99.90
10175;DHT22;18221;38.704;0.152;2022-08-04T14:19:48;32.50;99.90
10175;DHT22;18221;38.704;0.152;2022-08-04T14:22:28;32.70;99.90
10175;DHT22;18221;38.704;0.152;2022-08-04T14:25:03;32.80;99.90
10175;DHT22;18221;38.704;0.152;2022-08-04T14:27:42;32.70;99.90
10175;DHT22;18221;38.704;0.152;2022-08-04T14:30:23;32.70;99.90
10175;DHT22;18221;38.704;0.152;2022-08-04T14:33:00;32.70;99.90
10175;DHT22;18221;38.704;0.152;2022-08-04T14:35:31;32.70;99.90
10175;DHT22;18221;38.704;0.152;2022-08-04T14:38:02;32.60;99.90
10175;DHT22;18221;38.704;0.152;2022-08-04T14:40:35;32.80;99.90
10175;DHT22;18221;38.704;0.152;2022-08-04T14:43:05;32.80;99.90
10175;DHT22;18221;38.704;0.152;2022-08-04T14:45:36;32.80;99.90
10175;DHT22;18221;38.704;0.152;2022-08-04T14:48:08;32.80;99.90
10175;DHT22;18221;38.704;0.152;2022-08-04T14:50:39;32.70;99.90
10175;DHT22;18221;38.704;0.152;2022-08-04T14:53:09;32.80;99.90
10175;DHT22;18221;38.704;0.152;2022-08-04T14:55:47;32.80;99.90
10175;DHT22;18221;38.704;0.152;2022-08-04T14:58:18;32.80;99.90
10175;DHT22;18221;38.704;0.152;2022-08-04T15:00:50;32.90;99.90
10175;DHT22;18221;38.704;0.152;2022-08-04T15:03:21;32.90;99.90
10175;DHT22;18221;38.704;0.152;2022-08-04T15:05:50;32.90;99.90
10175;DHT22;18221;38.704;0.152;2022-08-04T15:08:19;32.70;99.90
10175;DHT22;18221;38.704;0.152;2022-08-04T15:10:48;32.60;99.90
10175;DHT22;18221;38.704;0.152;2022-08-04T15:13:17;32.60;99.90
10175;DHT22;18221;38.704;0.152;2022-08-04T15:15:45;32.50;99.90
10175;DHT22;18221;38.704;0.152;2022-08-04T15:18:13;32.40;99.90
10175;DHT22;18221;38.704;0.152;2022-08-04T15:20:41;32.40;99.90
10175;DHT22;18221;38.704;0.152;2022-08-04T15:23:09;32.30;99.90
10175;DHT22;18221;38.704;0.152;2022-08-04T15:25:39;32.20;99.90
10175;DHT22;18221;38.704;0.152;2022-08-04T15:28:14;32.20;99.90
10175;DHT22;18221;38.704;0.152;2022-08-04T15:30:48;32.30;99.90
10175;DHT22;18221;38.704;0.152;2022-08-04T15:33:18;32.30;99.90
10175;DHT22;18221;38.704;0.152;2022-08-04T15:35:52;32.30;99.90
10175;DHT22;18221;38.704;0.152;2022-08-04T15:38:37;32.10;99.90
10175;DHT22;18221;38.704;0.152;2022-08-04T15:41:18;31.90;99.90
10175;DHT22;18221;38.704;0.152;2022-08-04T15:44:10;31.70;99.90
10175;DHT22;18221;38.704;0.152;2022-08-04T15:47:12;31.60;99.90
10175;DHT22;18221;38.704;0.152;2022-08-04T15:49:41;31.40;99.90
10175;DHT22;18221;38.704;0.152;2022-08-04T15:52:11;31.30;99.90
10175;DHT22;18221;38.704;0.152;2022-08-04T15:54:42;31.30;99.90
10175;DHT22;18221;38.704;0.152;2022-08-04T15:57:11;31.40;99.90
10175;DHT22;18221;38.704;0.152;2022-08-04T16:00:04;31.40;99.90
10175;DHT22;18221;38.704;0.152;2022-08-04T16:02:42;31.50;99.90
10175;DHT22;18221;38.704;0.152;2022-08-04T16:05:43;31.40;99.90
10175;DHT22;18221;38.704;0.152;2022-08-04T16:08:15;31.60;99.90
10175;DHT22;18221;38.704;0.152;2022-08-04T16:10:45;31.60;99.90
10175;DHT22;18221;38.704;0.152;2022-08-04T16:13:16;31.60;99.90
10175;DHT22;18221;38.704;0.152;2022-08-04T16:15:49;31.60;99.90
10175;DHT22;18221;38.704;0.152;2022-08-04T16:18:21;31.60;99.90
10175;DHT22;18221;38.704;0.152;2022-08-04T16:21:05;31.40;99.90
10175;DHT22;18221;38.704;0.152;2022-08-04T16:26:51;31.20;99.90
10175;DHT22;18221;38.704;0.152;2022-08-04T16:29:32;31.10;99.90
10175;DHT22;18221;38.704;0.152;2022-08-04T16:32:16;31.30;99.90
10175;DHT22;18221;38.704;0.152;2022-08-04T16:34:48;31.30;99.90
10175;DHT22;18221;38.704;0.152;2022-08-04T16:37:21;31.30;99.90
10175;DHT22;18221;38.704;0.152;2022-08-04T16:40:24;31.10;99.90
10175;DHT22;18221;38.704;0.152;2022-08-04T16:42:57;30.80;99.90
10175;DHT22;18221;38.704;0.152;2022-08-04T16:45:50;30.80;99.90
10175;DHT22;18221;38.704;0.152;2022-08-04T16:48:26;30.90;99.90
10175;DHT22;18221;38.704;0.152;2022-08-04T16:50:59;30.70;99.90
10175;DHT22;18221;38.704;0.152;2022-08-04T16:53:33;30.80;99.90
10175;DHT22;18221;38.704;0.152;2022-08-04T16:56:05;30.90;99.90
10175;DHT22;18221;38.704;0.152;2022-08-04T16:58:37;30.70;99.90
10175;DHT22;18221;38.704;0.152;2022-08-04T17:01:10;30.60;99.90
10175;DHT22;18221;38.704;0.152;2022-08-04T17:03:52;30.60;99.90
10175;DHT22;18221;38.704;0.152;2022-08-04T17:06:20;30.80;99.90
10175;DHT22;18221;38.704;0.152;2022-08-04T17:08:48;30.60;99.90
10175;DHT22;18221;38.704;0.152;2022-08-04T17:11:16;30.50;99.90
10175;DHT22;18221;38.704;0.152;2022-08-04T17:13:45;30.60;99.90
10175;DHT22;18221;38.704;0.152;2022-08-04T17:16:15;30.60;99.90
10175;DHT22;18221;38.704;0.152;2022-08-04T17:18:50;30.60;99.90
10175;DHT22;18221;38.704;0.152;2022-08-04T17:21:24;30.50;99.90
10175;DHT22;18221;38.704;0.152;2022-08-04T17:23:56;30.00;99.90
10175;DHT22;18221;38.704;0.152;2022-08-04T17:26:27;30.50;99.90
10175;DHT22;18221;38.704;0.152;2022-08-04T17:28:57;30.50;99.90
10175;DHT22;18221;38.704;0.152;2022-08-04T17:31:27;30.40;99.90
10175;DHT22;18221;38.704;0.152;2022-08-04T17:34:00;30.40;99.90
10175;DHT22;18221;38.704;0.152;2022-08-04T17:36:36;30.20;99.90
10175;DHT22;18221;38.704;0.152;2022-08-04T17:39:12;30.00;99.90
10175;DHT22;18221;38.704;0.152;2022-08-04T17:41:42;30.00;99.90